Time;durP1;ratioP1;P1;durP2;ratioP2;P2;SDS_P1;SDS_P2;PMS_P1;PMS_P2;Temp;Humidity;BMP_temperature;BMP_pressure;BME280_temperature;BME280_humidity;BME280_pressure;Samples;Min_cycle;Max_cycle;Signal;HPM_P1;HPM_P2
2022/03/25 00:00:19;;;;;;;;;55.25;44.00;;;;;12.75;40.51;102052.59;5008504;28;46147;-82
2022/03/25 00:02:45;;;;;;;;;54.75;43.00;;;;;13.15;40.64;102131.88;5008337;28;45070;-82
2022/03/25 00:05:10;;;;;;;;;54.00;43.75;;;;;12.63;41.77;102045.91;5009090;28;45212;-83
2022/03/25 00:07:36;;;;;;;;;51.25;42.25;;;;;12.79;40.91;102081.84;5008502;28;45319;-83
2022/03/25 00:10:02;;;;;;;;;53.25;42.75;;;;;12.80;41.00;102085.38;5008836;28;45247;-82
2022/03/25 00:12:28;;;;;;;;;54.00;43.50;;;;;12.67;40.39;102067.19;5008564;28;45449;-82
2022/03/25 00:14:53;;;;;;;;;48.67;40.00;;;;;13.04;40.35;102134.03;5008289;28;45305;-82
2022/03/25 00:17:19;;;;;;;;;53.50;43.25;;;;;12.69;40.28;102074.31;5008271;28;45271;-82
2022/03/25 00:19:44;;;;;;;;;55.00;45.67;;;;;13.02;40.22;102133.06;5008172;28;45256;-82
2022/03/25 00:22:09;;;;;;;;;58.00;43.50;;;;;12.70;41.91;102080.50;5007965;28;45174;-82
2022/03/25 00:24:35;;;;;;;;;54.00;43.50;;;;;12.86;41.39;102117.34;5008399;28;45121;-81
2022/03/25 00:27:00;;;;;;;;;59.75;45.25;;;;;12.54;40.44;102055.13;4991069;28;45067;-82
2022/03/25 00:29:25;;;;;;;;;54.75;44.25;;;;;12.62;40.53;102064.31;5008110;28;45394;-82
2022/03/25 00:31:51;;;;;;;;;53.00;43.33;;;;;12.60;40.28;102060.69;5007953;28;45108;-83
2022/03/25 00:34:16;;;;;;;;;50.33;42.00;;;;;12.73;41.28;102084.19;5007981;28;51773;-83
2022/03/25 00:36:42;;;;;;;;;57.67;44.00;;;;;12.76;40.56;102092.25;5007828;28;45262;-82
2022/03/25 00:39:08;;;;;;;;;58.75;44.00;;;;;12.58;40.99;102068.53;5008621;28;45247;-81
2022/03/25 00:41:36;;;;;;;;;50.50;41.75;;;;;12.73;41.21;102093.84;4986861;28;45484;-82
2022/03/25 00:44:06;;;;;;;;;53.50;43.00;;;;;12.46;40.14;102045.94;4988937;28;45219;-83
2022/03/25 00:46:33;;;;;;;;;59.00;46.25;;;;;12.84;40.21;102116.34;5007092;28;45359;-82
2022/03/25 00:48:59;;;;;;;;;52.75;41.50;;;;;12.68;40.18;102101.53;5008494;28;45517;-83
2022/03/25 00:51:24;;;;;;;;;49.25;38.75;;;;;12.68;40.86;102093.63;5007354;28;45196;-82
2022/03/25 00:53:49;;;;;;;;;54.25;42.00;;;;;12.58;40.43;102076.44;5008076;28;45242;-82
2022/03/25 00:56:15;;;;;;;;;53.00;43.00;;;;;12.82;40.63;102145.31;4990238;28;45261;-82
2022/03/25 00:58:40;;;;;;;;;52.50;41.75;;;;;12.44;40.87;102079.25;5007335;28;45077;-82
2022/03/25 01:01:05;;;;;;;;;57.75;45.25;;;;;12.57;40.46;102103.66;5007949;28;45262;-82
2022/03/25 01:03:31;;;;;;;;;54.75;42.25;;;;;12.50;40.19;102084.81;5008566;28;45341;-83
2022/03/25 01:05:57;;;;;;;;;57.50;44.50;;;;;12.49;41.20;102085.66;5007795;28;45304;-83
2022/03/25 01:08:22;;;;;;;;;51.00;42.50;;;;;12.35;40.06;102064.78;5008352;28;45150;-82
2022/03/25 01:10:47;;;;;;;;;54.67;42.67;;;;;12.57;41.18;102100.13;5006318;28;45163;-83
2022/03/25 01:13:13;;;;;;;;;50.00;41.50;;;;;12.61;41.05;102116.19;5007163;28;45102;-82
2022/03/25 01:15:38;;;;;;;;;55.75;45.25;;;;;12.56;41.11;102119.38;5007855;28;45140;-82
2022/03/25 01:18:04;;;;;;;;;53.50;42.50;;;;;12.27;41.12;102065.28;5008417;28;45565;-82
2022/03/25 01:20:30;;;;;;;;;50.75;41.75;;;;;12.20;41.12;102057.88;4989436;28;45382;-83
2022/03/25 01:22:55;;;;;;;;;54.25;43.00;;;;;12.39;42.24;102098.38;5008181;28;45073;-82
2022/03/25 01:25:21;;;;;;;;;54.00;44.50;;;;;12.07;42.50;102051.13;5007681;28;45279;-82
2022/03/25 01:27:46;;;;;;;;;60.25;47.50;;;;;12.10;42.74;102067.06;5006932;28;45690;-82
2022/03/25 01:30:12;;;;;;;;;50.75;42.00;;;;;12.22;43.53;102088.78;5009298;28;45066;-82
2022/03/25 01:32:37;;;;;;;;;54.50;43.75;;;;;12.24;43.38;102102.91;5011354;28;45166;-83
2022/03/25 01:35:06;;;;;;;;;52.75;43.00;;;;;12.04;44.02;102072.03;5026140;28;45069;-83
2022/03/25 01:37:32;;;;;;;;;55.75;44.00;;;;;12.01;43.15;102069.22;4993173;28;47189;-82
2022/03/25 01:39:57;;;;;;;;;52.00;41.00;;;;;11.84;43.47;102068.41;5010836;28;45354;-83
2022/03/25 01:42:30;;;;;;;;;56.50;43.50;;;;;12.11;44.08;102111.03;5009923;28;45325;-81
2022/03/25 01:44:55;;;;;;;;;55.00;43.75;;;;;12.07;42.93;102122.28;5006977;28;45267;-82
2022/03/25 01:47:30;;;;;;;;;51.00;41.50;;;;;12.09;43.03;102113.59;5010637;28;45878;-82
2022/03/25 01:49:57;;;;;;;;;57.75;44.25;;;;;12.10;43.64;102120.66;5010927;28;45189;-82
2022/03/25 01:52:22;;;;;;;;;55.00;44.50;;;;;11.71;43.33;102040.50;5010826;28;44999;-83
2022/03/25 01:54:47;;;;;;;;;53.25;44.00;;;;;11.73;43.95;102054.66;5025785;28;45174;-82
2022/03/25 01:57:13;;;;;;;;;55.67;44.00;;;;;11.90;44.07;102091.50;5010437;28;45336;-82
2022/03/25 01:59:39;;;;;;;;;57.25;45.75;;;;;11.97;43.88;102110.34;4989789;28;45232;-83
2022/03/25 02:02:07;;;;;;;;;53.25;43.75;;;;;11.95;43.46;102113.72;4993412;28;45112;-83
2022/03/25 02:04:32;;;;;;;;;54.75;43.00;;;;;11.91;44.30;102101.22;5009816;28;45102;-82
2022/03/25 02:06:58;;;;;;;;;57.75;45.25;;;;;11.89;44.27;102122.22;5010548;28;45856;-82
2022/03/25 02:09:27;;;;;;;;;57.50;45.75;;;;;11.78;43.62;102095.31;5010058;28;45411;-82
2022/03/25 02:11:52;;;;;;;;;58.25;46.25;;;;;11.60;42.84;102073.28;4992160;28;45059;-82
2022/03/25 02:14:18;;;;;;;;;54.33;44.67;;;;;11.44;43.82;102039.09;5010638;28;45126;-82
2022/03/25 02:16:47;;;;;;;;;61.25;48.25;;;;;11.48;43.69;102034.06;5010555;28;45558;-82
2022/03/25 02:19:13;;;;;;;;;57.75;46.25;;;;;11.86;43.56;102104.50;5009882;28;45810;-82
2022/03/25 02:21:40;;;;;;;;;57.75;43.75;;;;;11.54;44.29;102046.63;5009755;28;45519;-82
2022/03/25 02:24:08;;;;;;;;;55.50;44.75;;;;;11.45;43.91;102036.53;5010497;28;45314;-82
2022/03/25 02:26:35;;;;;;;;;57.25;45.00;;;;;11.61;44.40;102070.72;4991457;28;47668;-82
2022/03/25 02:29:00;;;;;;;;;58.25;45.00;;;;;11.43;44.54;102053.06;5010612;28;45311;-82
2022/03/25 02:31:26;;;;;;;;;54.50;43.00;;;;;11.65;44.40;102098.13;4992287;28;45495;-82
2022/03/25 02:34:06;;;;;;;;;55.00;45.25;;;;;11.69;44.11;102105.34;4991787;28;45309;-82
2022/03/25 02:36:40;;;;;;;;;55.75;44.75;;;;;11.36;45.35;102058.00;5008181;28;46440;-82
2022/03/25 02:39:07;;;;;;;;;58.00;45.50;;;;;11.44;44.50;102065.41;5010351;28;45636;-82
2022/03/25 02:41:33;;;;;;;;;60.25;47.75;;;;;11.27;44.58;102038.19;4990267;28;45119;-82
2022/03/25 02:43:59;;;;;;;;;58.00;44.50;;;;;11.14;44.54;102017.34;5010107;28;45440;-82
2022/03/25 02:46:25;;;;;;;;;54.75;43.75;;;;;11.61;45.32;102106.69;5010028;28;45484;-82
2022/03/25 02:48:51;;;;;;;;;54.50;43.75;;;;;11.30;45.33;102048.91;5009273;28;45551;-83
2022/03/25 02:51:17;;;;;;;;;55.25;45.50;;;;;11.21;45.69;102051.03;5010033;28;45129;-82
2022/03/25 02:53:43;;;;;;;;;55.00;44.75;;;;;11.05;45.96;102038.81;5009771;28;45296;-82
2022/03/25 02:56:08;;;;;;;;;63.75;49.25;;;;;10.63;45.47;101969.91;5008603;28;46151;-82
2022/03/25 03:02:41;;;;;;;;;;;;;;;;;;;;;
2022/03/25 03:05:07;;;;;;;;;54.50;44.25;;;;;11.14;46.12;102089.28;4936818;28;69108;-82
2022/03/25 03:07:33;;;;;;;;;53.75;44.00;;;;;10.98;45.90;102062.97;5000935;28;45784;-83
2022/03/25 03:09:59;;;;;;;;;62.00;48.50;;;;;11.13;46.51;102100.63;5009702;28;45117;-81
2022/03/25 03:12:25;;;;;;;;;57.50;46.25;;;;;11.11;46.09;102097.00;5008989;28;45406;-82
2022/03/25 03:14:51;;;;;;;;;58.75;45.75;;;;;11.01;46.36;102081.56;5009126;28;44982;-83
2022/03/25 03:17:16;;;;;;;;;52.50;43.00;;;;;11.01;46.79;102090.34;5009083;28;45537;-82
2022/03/25 03:19:41;;;;;;;;;57.00;40.00;;;;;10.87;47.91;102074.63;5007093;28;45098;-81
2022/03/25 03:22:07;;;;;;;;;53.00;44.33;;;;;10.95;46.51;102090.03;5009896;28;45212;-82
2022/03/25 03:24:32;;;;;;;;;58.67;46.00;;;;;10.85;46.99;102083.34;5009027;28;45124;-82
2022/03/25 03:26:58;;;;;;;;;56.67;45.33;;;;;10.84;47.23;102099.06;5009092;28;45524;-83
2022/03/25 03:29:24;;;;;;;;;55.00;45.00;;;;;10.59;47.63;102055.63;5009424;28;45047;-82
2022/03/25 03:31:49;;;;;;;;;52.00;43.25;;;;;10.88;47.24;102119.41;5009529;28;45351;-83
2022/03/25 03:34:15;;;;;;;;;56.67;43.00;;;;;10.55;47.58;102055.38;5009307;28;45198;-81
2022/03/25 03:36:40;;;;;;;;;58.25;46.25;;;;;10.66;47.61;102085.78;5008736;28;45124;-83
2022/03/25 03:39:06;;;;;;;;;63.00;47.50;;;;;10.63;47.80;102080.34;5009138;28;45134;-82
2022/03/25 03:41:31;;;;;;;;;63.25;47.50;;;;;10.43;47.96;102065.19;5008587;28;45062;-81
2022/03/25 03:43:57;;;;;;;;;54.00;44.33;;;;;10.33;47.98;102064.66;5009342;28;45046;-82
2022/03/25 03:46:22;;;;;;;;;55.75;43.75;;;;;10.29;48.26;102060.03;4987755;28;47012;-82
2022/03/25 03:48:48;;;;;;;;;60.00;46.00;;;;;10.37;48.06;102075.34;4989658;28;45074;-82
2022/03/25 03:51:14;;;;;;;;;59.25;46.00;;;;;10.19;48.21;102046.25;5002730;28;45189;-82
2022/03/25 03:53:40;;;;;;;;;59.50;47.50;;;;;10.30;48.38;102075.03;5008472;28;45312;-82
2022/03/25 03:56:06;;;;;;;;;57.00;43.75;;;;;10.36;48.64;102087.59;5007938;28;46133;-82
2022/03/25 03:58:31;;;;;;;;;56.25;44.75;;;;;10.07;48.63;102033.34;4990428;28;45145;-82
2022/03/25 04:00:57;;;;;;;;;52.00;42.75;;;;;10.33;48.97;102085.69;5009188;28;45604;-82
2022/03/25 04:03:22;;;;;;;;;57.75;45.50;;;;;10.34;48.60;102094.47;4990630;28;45359;-82
2022/03/25 04:05:47;;;;;;;;;56.75;46.00;;;;;10.41;48.79;102111.50;5008269;28;45797;-82
2022/03/25 04:08:13;;;;;;;;;53.33;43.67;;;;;10.19;49.12;102076.06;5009132;28;44956;-82
2022/03/25 04:10:38;;;;;;;;;54.00;43.33;;;;;10.15;49.15;102073.19;5008081;28;45121;-81
2022/03/25 04:13:04;;;;;;;;;57.00;46.00;;;;;10.25;48.98;102099.22;5007971;28;44927;-81
2022/03/25 04:15:30;;;;;;;;;58.00;44.75;;;;;10.21;49.07;102094.56;5008398;28;46190;-82
2022/03/25 04:17:55;;;;;;;;;55.00;43.25;;;;;9.90;49.54;102039.34;5008442;28;45151;-82
2022/03/25 04:20:21;;;;;;;;;56.67;46.67;;;;;9.86;49.70;102040.00;5008917;28;45065;-82
2022/03/25 04:22:46;;;;;;;;;53.00;45.00;;;;;10.25;49.53;102117.63;5007972;28;45134;-82
2022/03/25 04:25:13;;;;;;;;;51.50;41.25;;;;;9.83;49.69;102049.50;5007730;28;45691;-82
2022/03/25 04:27:56;;;;;;;;;58.00;45.00;;;;;10.20;50.05;102122.56;5008128;28;45827;-81
2022/03/25 04:30:27;;;;;;;;;60.75;49.00;;;;;10.04;50.07;102104.97;5006709;28;44971;-82
2022/03/25 04:32:53;;;;;;;;;62.50;48.00;;;;;10.03;49.67;102102.28;5007925;28;44983;-81
2022/03/25 04:35:20;;;;;;;;;58.00;46.75;;;;;9.92;50.66;102088.53;4990276;28;47239;-82
2022/03/25 04:37:46;;;;;;;;;59.50;46.50;;;;;9.99;50.29;102108.16;5006202;28;45385;-81
2022/03/25 04:40:17;;;;;;;;;62.00;46.75;;;;;10.04;50.31;102112.88;5008075;28;45034;-81
2022/03/25 04:42:46;;;;;;;;;56.00;45.25;;;;;9.86;50.48;102095.16;5006998;28;45029;-82
2022/03/25 04:45:11;;;;;;;;;62.25;47.75;;;;;9.60;50.29;102056.81;5007913;28;45232;-83
2022/03/25 04:47:37;;;;;;;;;59.50;48.00;;;;;9.55;50.40;102051.31;5007795;28;45153;-82
2022/03/25 04:50:03;;;;;;;;;60.33;49.00;;;;;9.94;50.70;102125.38;5008643;28;45153;-81
2022/03/25 04:52:28;;;;;;;;;58.00;47.00;;;;;9.69;50.62;102087.16;5008167;28;45384;-82
2022/03/25 04:54:53;;;;;;;;;62.50;46.25;;;;;9.56;50.72;102068.88;5007713;28;45215;-83
2022/03/25 04:57:19;;;;;;;;;59.00;43.67;;;;;9.79;50.88;102117.50;5007931;28;45234;-82
2022/03/25 04:59:44;;;;;;;;;56.33;44.33;;;;;9.78;51.04;102113.97;5008158;28;45298;-82
2022/03/25 05:02:10;;;;;;;;;60.33;49.67;;;;;9.42;51.31;102052.31;5022893;28;45219;-81
2022/03/25 05:04:35;;;;;;;;;59.25;46.50;;;;;9.70;51.66;102109.06;5008822;28;45927;-82
2022/03/25 05:07:01;;;;;;;;;56.25;45.00;;;;;9.38;50.91;102062.53;5011618;28;45128;-81
2022/03/25 05:09:27;;;;;;;;;63.00;48.50;;;;;9.50;51.16;102095.63;5011093;28;45233;-82
2022/03/25 05:11:53;;;;;;;;;59.25;46.50;;;;;9.68;51.51;102135.22;5011634;28;45318;-82
2022/03/25 05:14:18;;;;;;;;;53.50;44.75;;;;;9.23;51.78;102058.16;5010936;28;45562;-81
2022/03/25 05:16:43;;;;;;;;;58.75;47.50;;;;;9.20;52.06;102051.81;4989647;28;45420;-82
2022/03/25 05:19:09;;;;;;;;;58.00;47.33;;;;;9.20;51.60;102067.53;4992201;28;45007;-82
2022/03/25 05:21:35;;;;;;;;;60.75;47.75;;;;;9.22;51.68;102082.59;4990825;28;45170;-82
2022/03/25 05:24:00;;;;;;;;;59.00;47.25;;;;;8.70;51.84;101994.53;4999753;28;45312;-82
2022/03/25 05:26:26;;;;;;;;;57.25;46.00;;;;;9.22;52.25;102084.31;5010340;28;45097;-82
2022/03/25 05:28:51;;;;;;;;;60.00;48.00;;;;;9.15;52.51;102074.22;5011388;28;45910;-82
2022/03/25 05:31:16;;;;;;;;;55.33;46.00;;;;;9.09;52.23;102074.75;5009445;28;47172;-81
2022/03/25 05:33:42;;;;;;;;;61.33;48.67;;;;;9.14;52.32;102082.91;5011025;28;45688;-82
2022/03/25 05:36:08;;;;;;;;;53.00;42.25;;;;;9.37;52.50;102142.97;5011181;28;45175;-80
2022/03/25 05:38:33;;;;;;;;;57.00;45.50;;;;;9.41;52.82;102136.16;5010874;28;44951;-82
2022/03/25 05:40:58;;;;;;;;;61.67;45.00;;;;;9.43;52.72;102148.56;5026780;28;45201;-83
2022/03/25 05:43:24;;;;;;;;;63.67;48.00;;;;;9.40;52.89;102144.84;5012618;28;46324;-82
2022/03/25 05:45:49;;;;;;;;;62.00;49.50;;;;;9.03;52.57;102077.00;5010526;28;45460;-82
2022/03/25 05:48:15;;;;;;;;;54.67;44.67;;;;;9.40;52.84;102144.84;5011035;28;44993;-81
2022/03/25 05:50:40;;;;;;;;;60.75;47.50;;;;;8.95;52.96;102066.03;5011089;28;45196;-81
2022/03/25 05:53:08;;;;;;;;;60.00;49.00;;;;;8.91;53.25;102071.88;5010722;28;45471;-82
2022/03/25 05:55:34;;;;;;;;;57.50;46.25;;;;;9.01;53.25;102081.22;5009772;28;45354;-82
2022/03/25 05:58:00;;;;;;;;;59.75;47.25;;;;;8.86;53.19;102070.69;5010162;28;45137;-82
2022/03/25 06:00:25;;;;;;;;;60.75;47.50;;;;;8.94;53.66;102073.81;5010456;28;45409;-82
2022/03/25 06:02:50;;;;;;;;;57.33;45.00;;;;;8.99;53.54;102082.88;5010352;28;46040;-82
2022/03/25 06:05:16;;;;;;;;;62.50;47.75;;;;;9.35;53.20;102152.44;5010555;28;45083;-82
2022/03/25 06:07:44;;;;;;;;;57.25;45.75;;;;;9.10;53.74;102107.13;5010180;28;44967;-82
2022/03/25 06:10:11;;;;;;;;;62.25;48.75;;;;;9.23;53.67;102139.47;5010232;28;45032;-82
2022/03/25 06:12:39;;;;;;;;;58.75;47.25;;;;;9.34;53.11;102141.84;5010115;28;45677;-82
2022/03/25 06:15:05;;;;;;;;;61.75;46.50;;;;;9.32;53.92;102130.38;5010486;28;45180;-82
2022/03/25 06:17:31;;;;;;;;;57.50;46.75;;;;;9.23;53.44;102125.47;5009792;28;45196;-83
2022/03/25 06:19:56;;;;;;;;;52.75;44.75;;;;;9.33;53.51;102132.19;5006658;28;45367;-82
2022/03/25 06:22:25;;;;;;;;;65.75;51.75;;;;;9.17;53.90;102104.09;4990287;28;47260;-82
2022/03/25 06:24:52;;;;;;;;;62.25;49.50;;;;;9.34;53.81;102132.25;5007810;28;45768;-83
2022/03/25 06:27:17;;;;;;;;;56.00;46.75;;;;;9.22;54.07;102108.81;5009682;28;45301;-82
2022/03/25 06:29:42;;;;;;;;;57.50;46.75;;;;;9.30;54.12;102118.03;5010084;28;45337;-83
2022/03/25 06:32:08;;;;;;;;;61.00;48.00;;;;;9.39;53.76;102136.06;5006262;28;45553;-82
2022/03/25 06:34:37;;;;;;;;;60.33;46.33;;;;;9.54;53.98;102164.97;5002297;28;45145;-83
2022/03/25 06:37:02;;;;;;;;;56.50;44.25;;;;;9.68;54.30;102187.72;4981088;28;45169;-83
2022/03/25 06:39:29;;;;;;;;;57.00;46.75;;;;;9.48;54.58;102138.38;4976245;28;45392;-83
2022/03/25 06:41:54;;;;;;;;;62.00;48.25;;;;;9.49;54.41;102127.94;4987344;28;47584;-83
2022/03/25 06:44:20;;;;;;;;;58.50;46.75;;;;;9.82;54.29;102178.06;4989221;28;45461;-84
2022/03/25 06:46:45;;;;;;;;;57.25;45.75;;;;;9.68;54.43;102144.81;4999629;28;45182;-83
2022/03/25 06:49:11;;;;;;;;;67.33;52.33;;;;;9.61;54.60;102127.81;5002707;28;45388;-84
2022/03/25 06:51:37;;;;;;;;;63.00;50.00;;;;;9.60;53.76;102117.19;5009287;28;46027;-83
2022/03/25 06:54:03;;;;;;;;;59.00;46.75;;;;;9.81;54.22;102140.41;5009636;28;45136;-83
2022/03/25 06:56:29;;;;;;;;;62.50;49.50;;;;;9.89;55.06;102142.56;5009621;28;45281;-83
2022/03/25 06:58:55;;;;;;;;;68.25;52.25;;;;;10.04;53.93;102167.13;5002913;28;45205;-83
2022/03/25 07:01:21;;;;;;;;;62.75;49.75;;;;;9.80;53.99;102111.41;5008872;28;45523;-83
2022/03/25 07:03:47;;;;;;;;;65.75;51.00;;;;;9.88;52.45;102114.50;5009908;28;45086;-83
2022/03/25 07:06:16;;;;;;;;;62.75;48.75;;;;;10.19;52.57;102148.72;5009740;28;45264;-82
2022/03/25 07:08:45;;;;;;;;;65.25;50.50;;;;;10.43;54.01;102170.31;5006507;28;45007;-83
2022/03/25 07:11:11;;;;;;;;;71.75;51.75;;;;;10.24;53.28;102127.19;4973208;28;46804;-82
2022/03/25 07:13:37;;;;;;;;;68.50;52.75;;;;;10.44;51.78;102143.22;5008768;28;45311;-82
2022/03/25 07:16:03;;;;;;;;;68.25;52.25;;;;;10.45;51.34;102131.91;4990921;28;45370;-82
2022/03/25 07:18:28;;;;;;;;;64.25;49.25;;;;;10.51;50.98;102127.00;5009363;28;45582;-82
2022/03/25 07:20:58;;;;;;;;;64.50;51.00;;;;;10.95;50.64;102179.47;5008744;28;45580;-83
2022/03/25 07:23:23;;;;;;;;;61.50;49.50;;;;;10.64;50.10;102115.41;5017733;28;45438;-83
2022/03/25 07:25:48;;;;;;;;;66.00;53.00;;;;;10.81;49.93;102138.31;4998140;28;44949;-82
2022/03/25 07:28:14;;;;;;;;;64.67;50.00;;;;;11.16;50.06;102185.00;4989418;28;45070;-83
2022/03/25 07:30:39;;;;;;;;;62.33;49.00;;;;;11.09;49.37;102161.81;5001559;28;45259;-82
2022/03/25 07:33:04;;;;;;;;;64.50;51.00;;;;;11.22;48.69;102163.38;5009048;28;45051;-83
2022/03/25 07:35:30;;;;;;;;;62.75;48.75;;;;;11.37;48.87;102180.91;5005914;28;45261;-82
2022/03/25 07:37:55;;;;;;;;;67.33;50.67;;;;;11.12;48.44;102125.13;4999039;28;44793;-83
2022/03/25 07:40:22;;;;;;;;;64.00;49.00;;;;;11.28;48.65;102146.22;4989104;28;47072;-83
2022/03/25 07:42:47;;;;;;;;;64.25;51.25;;;;;11.33;48.21;102139.47;4976045;28;45897;-83
2022/03/25 07:45:14;;;;;;;;;67.00;49.50;;;;;11.45;47.82;102151.47;4981653;28;45606;-82
2022/03/25 07:47:48;;;;;;;;;63.75;50.75;;;;;11.75;48.01;102195.22;4987664;28;45405;-82
2022/03/25 07:50:18;;;;;;;;;68.25;50.25;;;;;11.45;47.05;102131.31;4967054;28;48090;-82
2022/03/25 07:52:44;;;;;;;;;63.75;49.00;;;;;11.95;47.11;102203.31;4993691;28;45944;-83
2022/03/25 07:55:10;;;;;;;;;62.50;50.50;;;;;12.08;47.37;102211.03;4997629;28;45208;-81
2022/03/25 07:57:39;;;;;;;;;63.50;49.75;;;;;11.79;47.00;102144.53;5002506;28;45318;-82
2022/03/25 08:00:11;;;;;;;;;62.25;49.75;;;;;11.83;46.57;102145.63;4996411;28;46620;-82
2022/03/25 08:02:38;;;;;;;;;56.50;44.75;;;;;11.96;46.35;102163.84;5005708;28;45273;-82
2022/03/25 08:05:04;;;;;;;;;65.25;50.25;;;;;11.91;46.00;102146.91;5000122;28;45484;-83
2022/03/25 08:07:29;;;;;;;;;64.25;49.25;;;;;12.30;45.44;102194.56;4973700;28;45406;-83
2022/03/25 08:09:55;;;;;;;;;65.67;50.67;;;;;11.73;45.54;102101.16;4979780;28;47347;-83
2022/03/25 08:12:21;;;;;;;;;65.25;51.25;;;;;11.93;45.40;102126.84;5009505;28;45436;-82
2022/03/25 08:14:47;;;;;;;;;66.00;51.25;;;;;12.55;45.06;102225.72;5007984;28;45492;-83
2022/03/25 08:17:13;;;;;;;;;65.50;52.50;;;;;12.33;44.83;102171.00;4990634;28;44980;-83
2022/03/25 08:19:39;;;;;;;;;63.25;50.00;;;;;12.43;44.92;102181.19;4990124;28;47135;-83
2022/03/25 08:22:04;;;;;;;;;64.25;49.25;;;;;12.54;44.40;102189.63;5008487;28;45148;-83
2022/03/25 08:29:58;;;;;;;;;72.25;54.00;;;;;12.32;43.96;102133.22;4996843;28;45026;-83
2022/03/25 08:32:23;;;;;;;;;66.75;51.25;;;;;12.61;44.35;102182.13;5006456;28;45181;-82
2022/03/25 08:34:49;;;;;;;;;65.75;50.25;;;;;12.54;43.82;102150.06;5003413;28;45133;-82
2022/03/25 08:37:14;;;;;;;;;64.67;50.33;;;;;12.42;43.79;102137.19;5006607;28;45773;-83
2022/03/25 08:39:39;;;;;;;;;64.67;50.00;;;;;12.78;43.36;102185.56;5006176;28;45772;-82
2022/03/25 08:42:08;;;;;;;;;61.67;48.67;;;;;12.38;43.23;102128.22;5001020;28;45409;-82
2022/03/25 08:44:33;;;;;;;;;66.50;52.75;;;;;13.07;43.33;102244.13;4994381;28;45533;-82
2022/03/25 08:46:58;;;;;;;;;63.25;50.25;;;;;12.71;42.93;102164.06;5000808;28;45490;-82
2022/03/25 08:49:24;;;;;;;;;68.67;51.33;;;;;12.97;43.13;102197.00;5011559;28;45561;-83
2022/03/25 08:51:49;;;;;;;;;69.00;51.75;;;;;12.91;42.70;102184.44;4998521;28;44804;-83
2022/03/25 08:54:14;;;;;;;;;67.67;53.67;;;;;12.89;42.99;102171.16;4999979;28;45434;-82
2022/03/25 08:56:40;;;;;;;;;67.50;51.50;;;;;12.93;42.44;102160.75;4999032;28;45125;-83
2022/03/25 08:59:05;;;;;;;;;65.33;51.33;;;;;13.17;42.33;102209.44;4991204;28;45254;-82
2022/03/25 09:01:31;;;;;;;;;65.00;51.00;;;;;13.39;42.12;102227.19;4990377;28;45108;-83
2022/03/25 09:03:56;;;;;;;;;67.50;51.25;;;;;13.40;41.90;102229.94;4990739;28;45193;-83
2022/03/25 09:06:21;;;;;;;;;64.00;49.25;;;;;13.13;41.52;102162.59;5001752;28;45224;-82
2022/03/25 09:08:47;;;;;;;;;62.67;50.00;;;;;13.08;42.15;102133.34;4992005;28;45668;-82
2022/03/25 09:11:12;;;;;;;;;67.50;52.00;;;;;13.14;41.57;102153.84;5006216;28;45180;-83
2022/03/25 09:13:40;;;;;;;;;61.33;49.67;;;;;13.14;41.72;102135.34;4991118;28;45309;-82
2022/03/25 09:16:06;;;;;;;;;68.25;51.50;;;;;13.77;41.12;102230.72;5006255;28;45235;-82
2022/03/25 09:18:32;;;;;;;;;67.50;51.50;;;;;13.20;40.98;102121.53;4998782;28;46570;-82
2022/03/25 09:20:57;;;;;;;;;44.25;35.75;;;;;13.80;41.03;102201.81;4999117;28;45225;-82
2022/03/25 09:23:23;;;;;;;;;65.67;50.33;;;;;13.60;40.99;102174.47;5003710;28;45245;-82
2022/03/25 09:25:48;;;;;;;;;62.00;49.00;;;;;13.85;40.37;102184.41;5002457;28;45066;-81
2022/03/25 09:28:15;;;;;;;;;61.00;48.33;;;;;13.18;40.37;102058.09;4996594;28;45875;-82
2022/03/25 09:30:40;;;;;;;;;59.00;47.75;;;;;13.55;39.92;102096.78;5001337;28;45406;-83
2022/03/25 09:33:07;;;;;;;;;64.50;49.00;;;;;14.29;39.88;102220.72;4991753;28;45225;-80
2022/03/25 09:35:34;;;;;;;;;66.00;50.00;;;;;14.25;40.12;102199.34;4993559;28;45442;-81
2022/03/25 09:37:59;;;;;;;;;61.75;47.25;;;;;14.00;39.83;102144.53;5013191;28;45246;-82
2022/03/25 09:40:26;;;;;;;;;49.00;31.75;;;;;14.32;39.82;102188.19;4994030;28;46607;-82
2022/03/25 09:42:55;;;;;;;;;65.50;49.00;;;;;13.66;39.68;102050.56;4996238;28;45242;-81
2022/03/25 09:45:22;;;;;;;;;52.00;42.25;;;;;14.66;39.12;102207.31;5000303;28;45206;-81
2022/03/25 09:47:49;;;;;;;;;60.25;47.75;;;;;14.42;38.73;102163.94;5003867;28;45672;-81
2022/03/25 09:50:17;;;;;;;;;66.75;50.00;;;;;14.52;38.45;102159.94;4997083;28;45518;-81
2022/03/25 09:52:44;;;;;;;;;67.50;51.25;;;;;14.67;38.66;102177.34;5010377;28;45174;-81
2022/03/25 09:55:11;;;;;;;;;60.50;49.00;;;;;14.74;38.13;102174.97;5001432;28;45408;-82
2022/03/25 09:57:36;;;;;;;;;60.00;49.25;;;;;15.02;38.55;102214.03;5001181;28;45971;-82
2022/03/25 10:00:04;;;;;;;;;65.75;49.75;;;;;15.08;37.83;102211.66;4999808;28;45149;-82
2022/03/25 10:02:29;;;;;;;;;63.50;46.75;;;;;14.91;37.69;102184.47;5001525;28;45254;-81
2022/03/25 10:04:57;;;;;;;;;61.75;49.75;;;;;14.87;37.74;102153.44;4990183;28;45190;-81
2022/03/25 10:07:27;;;;;;;;;67.50;53.25;;;;;15.04;37.60;102175.28;5009565;28;45780;-81
2022/03/25 10:10:07;;;;;;;;;67.00;51.25;;;;;15.40;37.37;102218.19;5014785;28;45507;-82
2022/03/25 10:12:32;;;;;;;;;62.25;48.75;;;;;15.17;37.30;102167.91;5011749;28;45205;-82
2022/03/25 10:15:27;;;;;;;;;64.00;51.00;;;;;15.52;37.31;102207.16;5009816;28;45429;-81
2022/03/25 10:17:58;;;;;;;;;61.75;48.75;;;;;15.60;37.09;102208.34;5010607;28;45324;-82
2022/03/25 10:20:28;;;;;;;;;64.25;50.00;;;;;15.67;36.69;102213.09;5007687;28;45685;-81
2022/03/25 10:23:00;;;;;;;;;64.25;51.00;;;;;15.74;37.34;102204.50;5028004;28;45306;-82
2022/03/25 10:25:55;;;;;;;;;68.50;54.00;;;;;15.72;37.23;102185.91;5011055;28;45306;-82
2022/03/25 10:28:37;;;;;;;;;69.25;53.50;;;;;15.72;37.19;102175.28;5002001;28;46013;-82
2022/03/25 10:31:17;;;;;;;;;69.00;52.00;;;;;15.54;36.54;102128.63;5008603;28;45096;-82
2022/03/25 10:33:52;;;;;;;;;64.00;51.25;;;;;15.93;36.97;102184.88;4986487;28;45239;-82
2022/03/25 10:36:20;;;;;;;;;72.75;55.25;;;;;15.98;36.57;102180.63;4996544;28;45445;-82
2022/03/25 10:38:54;;;;;;;;;65.75;51.50;;;;;16.24;36.36;102205.41;5003410;28;46004;-82
2022/03/25 10:41:22;;;;;;;;;73.75;54.50;;;;;16.32;36.36;102211.88;4993121;28;45220;-82
2022/03/25 10:44:03;;;;;;;;;71.75;54.75;;;;;16.18;36.08;102158.34;4996184;28;45109;-82
2022/03/25 10:46:41;;;;;;;;;67.25;52.75;;;;;16.45;35.89;102198.19;4990090;28;45223;-81
2022/03/25 10:49:10;;;;;;;;;66.75;52.50;;;;;15.76;35.57;102058.75;5029955;28;45282;-82
2022/03/25 10:51:43;;;;;;;;;69.00;54.00;;;;;16.55;35.92;102182.56;4997280;28;46067;-82
2022/03/25 10:54:13;;;;;;;;;72.25;56.25;;;;;16.24;36.03;102125.81;5009379;28;45177;-82
2022/03/25 10:56:49;;;;;;;;;67.00;54.00;;;;;16.75;35.21;102186.81;4997585;28;45173;-82
2022/03/25 10:59:29;;;;;;;;;64.00;49.50;;;;;16.52;35.08;102140.91;4994597;28;46023;-81
2022/03/25 11:01:56;;;;;;;;;64.00;50.25;;;;;16.20;35.23;102066.44;4993386;28;45296;-83
2022/03/25 11:04:22;;;;;;;;;66.25;50.50;;;;;16.62;34.67;102136.78;4998813;28;45077;-81
2022/03/25 11:06:49;;;;;;;;;63.75;51.00;;;;;16.50;35.24;102101.06;5009253;28;45169;-80
2022/03/25 11:09:16;;;;;;;;;66.50;52.25;;;;;17.05;35.65;102181.56;5008809;28;45950;-83
2022/03/25 11:11:43;;;;;;;;;64.75;51.25;;;;;16.93;35.19;102144.88;4989692;28;47282;-82
2022/03/25 11:14:09;;;;;;;;;67.00;53.00;;;;;16.72;34.58;102096.44;4998533;28;45469;-82
2022/03/25 11:16:40;;;;;;;;;57.75;44.25;;;;;17.03;33.95;102146.97;4990002;28;45089;-82
2022/03/25 11:19:09;;;;;;;;;64.50;50.00;;;;;17.00;34.57;102128.31;4982241;28;45833;-82